Time,TemperatureF,DewpointF,PressureIn,WindDirection,WindDirectionDegrees,WindSpeedMPH,WindSpeedGustMPH,Humidity,HourlyPrecipIn,Conditions,Clouds,dailyrainin,SoftwareType,DateUTC
2013-07-25 00:00:00,44.6,39.1,30.10,NNW,329,0.0,0.0,81,0.00,,CLR,0.00,VWS V14.01,2013-07-25 04:00:00,
2013-07-25 00:01:00,44.6,39.1,30.10,NNW,329,0.0,0.0,81,0.00,,CLR,0.00,VWS V14.01,2013-07-25 04:01:00,
2013-07-25 00:02:00,44.6,39.1,30.10,NNW,329,0.0,0.0,81,0.00,,CLR,0.00,VWS V14.01,2013-07-25 04:02:00,
2013-07-25 00:07:00,44.6,39.5,30.10,NNW,329,0.0,0.0,82,0.00,,CLR,0.00,VWS V14.01,2013-07-25 04:07:00,
2013-07-25 00:12:00,44.4,39.3,30.10,NNW,329,0.0,0.0,82,0.00,,CLR,0.00,VWS V14.01,2013-07-25 04:12:00,
2013-07-25 00:17:00,44.4,39.6,30.13,NNW,329,0.0,0.0,83,0.00,,CLR,0.00,VWS V14.01,2013-07-25 04:17:00,
2013-07-25 00:22:00,44.4,39.6,30.13,NNW,329,0.0,0.0,83,0.00,,CLR,0.00,VWS V14.01,2013-07-25 04:22:00,
2013-07-25 00:27:00,44.2,39.4,30.13,NNW,329,0.0,0.0,83,0.00,,CLR,0.00,VWS V14.01,2013-07-25 04:27:00,
2013-07-25 00:32:00,44.2,39.4,30.13,NNW,329,0.0,0.0,83,0.00,,CLR,0.00,VWS V14.01,2013-07-25 04:32:00,
2013-07-25 00:37:00,44.2,39.4,30.13,NNW,329,0.0,0.0,83,0.00,,CLR,0.00,VWS V14.01,2013-07-25 04:37:00,
2013-07-25 00:42:00,44.2,39.4,30.13,NNW,329,0.0,0.0,83,0.00,,CLR,0.00,VWS V14.01,2013-07-25 04:42:00,
2013-07-25 00:47:00,44.1,39.5,30.13,NNW,329,0.0,0.0,84,0.00,,CLR,0.00,VWS V14.01,2013-07-25 04:47:00,
2013-07-25 00:52:00,44.2,39.7,30.13,NNW,329,0.0,0.0,84,0.00,,CLR,0.00,VWS V14.01,2013-07-25 04:52:00,
2013-07-25 00:57:00,44.2,39.7,30.13,NNW,329,0.0,0.0,84,0.00,,CLR,0.00,VWS V14.01,2013-07-25 04:57:00,
2013-07-25 01:02:00,44.2,39.7,30.13,NNW,329,0.0,0.0,84,0.00,,CLR,0.00,VWS V14.01,2013-07-25 05:02:00,
2013-07-25 01:07:00,44.2,40.0,30.13,NNW,329,0.0,0.0,85,0.00,,CLR,0.00,VWS V14.01,2013-07-25 05:07:00,
2013-07-25 01:12:00,44.2,40.0,30.13,NNW,329,0.0,0.0,85,0.00,,CLR,0.00,VWS V14.01,2013-07-25 05:12:00,
2013-07-25 01:17:00,44.2,40.0,30.13,NNW,329,0.0,0.0,85,0.00,,CLR,0.00,VWS V14.01,2013-07-25 05:17:00,
2013-07-25 01:22:00,44.2,40.0,30.13,NNW,329,0.0,0.0,85,0.00,,CLR,0.00,VWS V14.01,2013-07-25 05:22:00,
2013-07-25 01:27:00,44.2,40.3,30.13,NNW,329,0.0,0.0,86,0.00,,CLR,0.00,VWS V14.01,2013-07-25 05:27:00,
2013-07-25 01:32:00,44.2,40.3,30.13,NNW,329,0.0,0.0,86,0.00,,CLR,0.00,VWS V14.01,2013-07-25 05:32:00,
2013-07-25 01:37:00,44.4,40.5,30.13,NNW,329,0.0,0.0,86,0.00,,CLR,0.00,VWS V14.01,2013-07-25 05:37:00,
2013-07-25 01:42:00,44.4,40.5,30.13,NNW,329,0.0,0.0,86,0.00,,CLR,0.00,VWS V14.01,2013-07-25 05:42:00,
2013-07-25 01:47:00,44.8,40.9,30.13,NNW,329,0.0,0.0,86,0.00,,CLR,0.00,VWS V14.01,2013-07-25 05:47:00,
2013-07-25 01:52:00,45.0,41.0,30.13,NNW,329,0.0,0.0,86,0.00,,CLR,0.00,VWS V14.01,2013-07-25 05:52:00,
2013-07-25 01:57:00,45.0,41.0,30.13,NNW,329,0.0,0.0,86,0.00,,CLR,0.00,VWS V14.01,2013-07-25 05:57:00,
2013-07-25 02:02:00,45.1,41.5,30.13,NNW,329,0.0,0.0,87,0.00,,CLR,0.00,VWS V14.01,2013-07-25 06:02:00,
2013-07-25 02:07:00,45.1,41.5,30.13,NNW,329,0.0,0.0,87,0.00,,CLR,0.00,VWS V14.01,2013-07-25 06:07:00,
2013-07-25 02:12:00,45.1,41.5,30.13,NNW,329,0.0,0.0,87,0.00,,CLR,0.00,VWS V14.01,2013-07-25 06:12:00,
2013-07-25 02:17:00,45.3,41.7,30.13,NNW,329,0.0,0.0,87,0.00,,CLR,0.00,VWS V14.01,2013-07-25 06:17:00,
2013-07-25 02:22:00,45.5,41.9,30.13,NNW,329,0.0,0.0,87,0.00,,CLR,0.00,VWS V14.01,2013-07-25 06:22:00,
2013-07-25 02:27:00,45.9,42.2,30.13,NNW,329,0.0,0.0,87,0.00,,CLR,0.00,VWS V14.01,2013-07-25 06:27:00,
2013-07-25 02:32:00,45.9,42.5,30.13,NNW,329,0.0,0.0,88,0.00,,CLR,0.00,VWS V14.01,2013-07-25 06:32:00,
2013-07-25 02:37:00,45.9,42.5,30.13,NNW,329,0.0,0.0,88,0.00,,CLR,0.00,VWS V14.01,2013-07-25 06:37:00,
2013-07-25 02:42:00,45.9,42.5,30.13,NNW,329,0.0,0.0,88,0.00,,FEW001,0.00,VWS V14.01,2013-07-25 06:42:00,
2013-07-25 02:47:00,45.9,42.5,30.13,NNW,329,0.0,0.0,88,0.00,,FEW001,0.00,VWS V14.01,2013-07-25 06:47:00,
2013-07-25 02:52:00,45.7,42.3,30.13,NNW,329,0.0,0.0,88,0.00,,FEW001,0.00,VWS V14.01,2013-07-25 06:52:00,
2013-07-25 02:57:00,45.7,42.3,30.13,NNW,329,0.0,0.0,88,0.00,,FEW001,0.00,VWS V14.01,2013-07-25 06:57:00,
2013-07-25 03:02:00,45.5,42.2,30.13,NNW,329,0.0,0.0,88,0.00,,FEW001,0.00,VWS V14.01,2013-07-25 07:02:00,
2013-07-25 03:07:00,45.5,42.5,30.13,NNW,329,0.0,0.0,89,0.00,,FEW001,0.00,VWS V14.01,2013-07-25 07:07:00,
2013-07-25 03:12:00,45.5,42.5,30.13,NNW,329,0.0,0.0,89,0.00,,FEW001,0.00,VWS V14.01,2013-07-25 07:12:00,
2013-07-25 03:17:00,45.3,42.0,30.13,NNW,329,0.0,0.0,88,0.00,,FEW001,0.00,VWS V14.01,2013-07-25 07:17:00,
2013-07-25 03:22:00,45.1,42.1,30.13,NNW,329,0.0,0.0,89,0.00,,FEW001,0.00,VWS V14.01,2013-07-25 07:22:00,
2013-07-25 03:27:00,45.1,42.1,30.13,NNW,329,0.0,0.0,89,0.00,,FEW001,0.00,VWS V14.01,2013-07-25 07:27:00,
2013-07-25 03:32:00,45.1,42.1,30.13,NNW,329,0.0,0.0,89,0.00,,FEW001,0.00,VWS V14.01,2013-07-25 07:32:00,
2013-07-25 03:37:00,45.1,42.1,30.13,NNW,329,0.0,0.0,89,0.00,,FEW001,0.00,VWS V14.01,2013-07-25 07:37:00,
2013-07-25 03:42:00,45.1,42.1,30.13,NNW,329,0.0,0.0,89,0.00,,FEW001,0.00,VWS V14.01,2013-07-25 07:42:00,
2013-07-25 03:47:00,45.1,42.1,30.13,NNW,329,0.0,0.0,89,0.00,,FEW001,0.00,VWS V14.01,2013-07-25 07:47:00,
2013-07-25 03:52:00,45.1,42.4,30.13,NNW,329,0.0,0.0,90,0.00,,FEW001,0.00,VWS V14.01,2013-07-25 07:52:00,
2013-07-25 03:57:00,45.1,42.4,30.13,NNW,329,0.0,0.0,90,0.00,,FEW001,0.00,VWS V14.01,2013-07-25 07:57:00,
2013-07-25 04:02:00,44.8,41.7,30.13,NNW,329,0.0,0.0,89,0.00,,FEW001,0.00,VWS V14.01,2013-07-25 08:02:00,
2013-07-25 04:08:00,44.8,41.7,30.13,NNW,329,0.0,0.0,89,0.00,,FEW001,0.00,VWS V14.01,2013-07-25 08:08:00,
2013-07-25 04:13:00,44.1,41.0,30.13,NNW,329,0.0,0.0,89,0.00,,FEW001,0.00,VWS V14.01,2013-07-25 08:13:00,
2013-07-25 04:18:00,44.1,41.0,30.13,NNW,329,0.0,0.0,89,0.00,,FEW001,0.00,VWS V14.01,2013-07-25 08:18:00,
2013-07-25 04:23:00,43.5,40.8,30.13,NNW,329,0.0,0.0,90,0.00,,FEW001,0.00,VWS V14.01,2013-07-25 08:23:00,
2013-07-25 04:28:00,43.0,40.2,30.13,NNW,329,0.0,0.0,90,0.00,,FEW001,0.00,VWS V14.01,2013-07-25 08:28:00,
2013-07-25 04:33:00,42.8,39.8,30.13,NNW,329,0.0,0.0,89,0.00,,FEW001,0.00,VWS V14.01,2013-07-25 08:33:00,
2013-07-25 04:38:00,42.4,39.7,30.13,NNW,329,0.0,0.0,90,0.00,,FEW001,0.00,VWS V14.01,2013-07-25 08:38:00,
2013-07-25 04:43:00,42.3,39.5,30.13,NNW,329,0.0,0.0,90,0.00,,CLR,0.00,VWS V14.01,2013-07-25 08:43:00,
2013-07-25 04:48:00,41.7,39.0,30.13,NNW,329,0.0,0.0,90,0.00,,CLR,0.00,VWS V14.01,2013-07-25 08:48:00,
2013-07-25 04:53:00,41.7,39.0,30.13,NNW,329,0.0,0.0,90,0.00,,CLR,0.00,VWS V14.01,2013-07-25 08:53:00,
2013-07-25 04:58:00,41.4,38.7,30.13,NNW,329,0.0,0.0,90,0.00,,CLR,0.00,VWS V14.01,2013-07-25 08:58:00,
2013-07-25 05:03:00,41.2,38.5,30.13,NNW,329,0.0,0.0,90,0.00,,CLR,0.00,VWS V14.01,2013-07-25 09:03:00,
2013-07-25 05:08:00,41.0,38.3,30.13,NNW,329,0.0,0.0,90,0.00,,CLR,0.00,VWS V14.01,2013-07-25 09:08:00,
2013-07-25 05:13:00,40.8,38.1,30.13,NNW,329,0.0,0.0,90,0.00,,CLR,0.00,VWS V14.01,2013-07-25 09:13:00,
2013-07-25 05:18:00,40.8,38.1,30.13,NNW,329,0.0,0.0,90,0.00,,CLR,0.00,VWS V14.01,2013-07-25 09:18:00,
2013-07-25 05:23:00,40.5,37.8,30.13,NNW,329,0.0,0.0,90,0.00,,CLR,0.00,VWS V14.01,2013-07-25 09:23:00,
2013-07-25 05:28:00,40.3,37.9,30.16,NNW,329,0.0,0.0,91,0.00,,CLR,0.00,VWS V14.01,2013-07-25 09:28:00,
2013-07-25 05:33:00,40.3,37.9,30.16,NNW,329,0.0,0.0,91,0.00,,CLR,0.00,VWS V14.01,2013-07-25 09:33:00,
2013-07-25 05:38:00,40.1,37.7,30.16,NNW,329,0.0,0.0,91,0.00,,CLR,0.00,VWS V14.01,2013-07-25 09:38:00,
2013-07-25 05:43:00,40.1,37.7,30.16,NNW,329,0.0,0.0,91,0.00,,SCT001,0.00,VWS V14.01,2013-07-25 09:43:00,
2013-07-25 05:48:00,39.9,37.5,30.16,NNW,329,0.0,0.0,91,0.00,,SCT001,0.00,VWS V14.01,2013-07-25 09:48:00,
2013-07-25 05:53:00,39.9,37.5,30.16,NNW,329,0.0,0.0,91,0.00,,SCT001,0.00,VWS V14.01,2013-07-25 09:53:00,
2013-07-25 05:58:00,39.9,37.5,30.16,NNW,329,0.0,0.0,91,0.00,,SCT001,0.00,VWS V14.01,2013-07-25 09:58:00,
2013-07-25 06:03:00,39.9,37.5,30.16,NNW,329,0.0,0.0,91,0.00,,SCT001,0.00,VWS V14.01,2013-07-25 10:03:00,
2013-07-25 06:08:00,40.1,37.7,30.16,NNW,329,0.0,0.0,91,0.00,,SCT001,0.00,VWS V14.01,2013-07-25 10:08:00,
2013-07-25 06:13:00,40.1,37.7,30.16,NNW,329,0.0,0.0,91,0.00,,SCT001,0.00,VWS V14.01,2013-07-25 10:13:00,
2013-07-25 06:18:00,40.1,37.7,30.16,NNW,329,0.0,0.0,91,0.00,,SCT001,0.00,VWS V14.01,2013-07-25 10:18:00,
2013-07-25 06:23:00,40.1,38.0,30.16,NNW,329,0.0,0.0,92,0.00,,SCT001,0.00,VWS V14.01,2013-07-25 10:23:00,
2013-07-25 06:28:00,40.5,38.3,30.16,NNW,329,0.0,0.0,92,0.00,,SCT001,0.00,VWS V14.01,2013-07-25 10:28:00,
2013-07-25 06:33:00,40.5,38.3,30.16,NNW,329,0.0,0.0,92,0.00,,SCT001,0.00,VWS V14.01,2013-07-25 10:33:00,
2013-07-25 06:38:00,40.8,38.7,30.16,NNW,329,0.0,0.0,92,0.00,,SCT001,0.00,VWS V14.01,2013-07-25 10:38:00,
2013-07-25 06:43:00,40.8,38.7,30.16,NNW,329,0.0,0.0,92,0.00,,SCT001,0.00,VWS V14.01,2013-07-25 10:43:00,
2013-07-25 06:48:00,41.9,39.8,30.16,NNW,329,0.0,0.0,92,0.00,,SCT001,0.00,VWS V14.01,2013-07-25 10:48:00,
2013-07-25 06:53:00,42.4,40.6,30.16,NNW,329,0.0,0.0,93,0.00,,SCT001,0.00,VWS V14.01,2013-07-25 10:53:00,
2013-07-25 06:58:00,43.5,41.6,30.16,NNW,329,0.0,0.0,93,0.00,,SCT001,0.00,VWS V14.01,2013-07-25 10:58:00,
2013-07-25 07:03:00,44.1,42.2,30.16,NNW,329,0.0,0.0,93,0.00,,SCT001,0.00,VWS V14.01,2013-07-25 11:03:00,
2013-07-25 07:08:00,44.1,42.2,30.16,NNW,329,0.0,0.0,93,0.00,,SCT001,0.00,VWS V14.01,2013-07-25 11:08:00,
2013-07-25 07:13:00,45.0,43.1,30.16,NNW,329,0.0,0.0,93,0.00,,SCT001,0.00,VWS V14.01,2013-07-25 11:13:00,
2013-07-25 07:18:00,45.0,43.1,30.16,NNW,329,0.0,0.0,93,0.00,,SCT001,0.00,VWS V14.01,2013-07-25 11:18:00,
2013-07-25 07:23:00,45.7,43.8,30.16,NNW,329,0.0,0.0,93,0.00,,SCT001,0.00,VWS V14.01,2013-07-25 11:23:00,
2013-07-25 07:28:00,46.0,44.1,30.16,NNW,329,0.0,0.0,93,0.00,,SCT001,0.00,VWS V14.01,2013-07-25 11:28:00,
2013-07-25 07:33:00,46.9,45.0,30.16,NNW,329,0.0,0.0,93,0.00,,SCT001,0.00,VWS V14.01,2013-07-25 11:33:00,
2013-07-25 07:38:00,47.5,45.6,30.16,NNW,329,0.0,0.0,93,0.00,,SCT001,0.00,VWS V14.01,2013-07-25 11:38:00,
2013-07-25 07:43:00,48.7,47.1,30.16,NNW,329,0.0,0.0,94,0.00,,CLR,0.00,VWS V14.01,2013-07-25 11:43:00,
2013-07-25 07:48:00,49.3,47.6,30.16,NNW,329,0.0,0.0,94,0.00,,CLR,0.00,VWS V14.01,2013-07-25 11:48:00,
2013-07-25 07:53:00,49.8,48.2,30.16,NNW,329,0.0,0.0,94,0.00,,CLR,0.00,VWS V14.01,2013-07-25 11:53:00,
2013-07-25 07:58:00,50.2,48.5,30.16,NNW,329,0.0,0.0,94,0.00,,CLR,0.00,VWS V14.01,2013-07-25 11:58:00,
2013-07-25 08:03:00,51.1,49.4,30.16,NNW,329,0.0,0.0,94,0.00,,CLR,0.00,VWS V14.01,2013-07-25 12:03:00,
2013-07-25 08:08:00,51.3,49.6,30.16,NNW,329,0.0,0.0,94,0.00,,CLR,0.00,VWS V14.01,2013-07-25 12:08:00,
2013-07-25 08:13:00,52.2,50.5,30.16,NNW,329,0.0,0.0,94,0.00,,CLR,0.00,VWS V14.01,2013-07-25 12:13:00,
2013-07-25 08:18:00,52.2,50.5,30.16,NNW,329,0.0,0.0,94,0.00,,CLR,0.00,VWS V14.01,2013-07-25 12:18:00,
2013-07-25 08:23:00,54.3,52.6,30.16,NNW,329,0.0,0.0,94,0.00,,CLR,0.00,VWS V14.01,2013-07-25 12:23:00,
2013-07-25 08:28:00,55.9,54.2,30.16,NNW,329,0.0,0.0,94,0.00,,CLR,0.00,VWS V14.01,2013-07-25 12:28:00,
2013-07-25 08:33:00,56.3,54.6,30.16,NNW,329,0.0,0.0,94,0.00,,CLR,0.00,VWS V14.01,2013-07-25 12:33:00,
2013-07-25 08:38:00,56.8,54.8,30.16,North,357,0.0,0.0,93,0.00,,CLR,0.00,VWS V14.01,2013-07-25 12:38:00,
2013-07-25 08:43:00,57.2,54.9,30.16,North,357,0.0,0.0,92,0.00,,CLR,0.00,VWS V14.01,2013-07-25 12:43:00,
2013-07-25 08:49:00,57.7,54.2,30.16,North,357,0.0,0.0,88,0.00,,CLR,0.00,VWS V14.01,2013-07-25 12:49:00,
2013-07-25 08:54:00,57.2,50.4,30.19,North,357,0.0,0.0,78,0.00,,CLR,0.00,VWS V14.01,2013-07-25 12:54:00,
2013-07-25 08:59:00,57.6,50.1,30.19,NNE,12,0.0,0.0,76,0.00,,CLR,0.00,VWS V14.01,2013-07-25 12:59:00,
2013-07-25 09:04:00,57.6,50.1,30.19,NNE,14,3.1,3.1,76,0.00,,CLR,0.00,VWS V14.01,2013-07-25 13:04:00,
2013-07-25 09:09:00,57.6,50.1,30.19,NNE,23,3.6,3.6,76,0.00,,CLR,0.00,VWS V14.01,2013-07-25 13:09:00,
2013-07-25 09:14:00,57.4,47.7,30.19,NNW,341,0.0,3.6,70,0.00,,CLR,0.00,VWS V14.01,2013-07-25 13:14:00,
2013-07-25 09:19:00,57.6,46.7,30.19,NE,40,4.0,4.0,67,0.00,,CLR,0.00,VWS V14.01,2013-07-25 13:19:00,
2013-07-25 09:24:00,57.6,45.5,30.19,NNE,16,3.6,5.8,64,0.00,,CLR,0.00,VWS V14.01,2013-07-25 13:24:00,
2013-07-25 09:29:00,57.7,46.5,30.19,North,353,2.7,5.8,66,0.00,,CLR,0.00,VWS V14.01,2013-07-25 13:29:00,
2013-07-25 09:34:00,58.1,47.6,30.19,North,353,2.7,2.7,68,0.00,,CLR,0.00,VWS V14.01,2013-07-25 13:34:00,
2013-07-25 09:39:00,58.5,43.8,30.19,NNE,19,5.4,5.4,58,0.00,,CLR,0.00,VWS V14.01,2013-07-25 13:39:00,
2013-07-25 09:44:00,58.5,43.8,30.19,North,357,4.9,5.4,58,0.00,,CLR,0.00,VWS V14.01,2013-07-25 13:44:00,
2013-07-25 09:49:00,59.0,40.9,30.19,North,357,4.9,5.4,51,0.00,,CLR,0.00,VWS V14.01,2013-07-25 13:49:00,
2013-07-25 09:54:00,59.0,40.9,30.19,NNE,15,5.8,5.8,51,0.00,,CLR,0.00,VWS V14.01,2013-07-25 13:54:00,
2013-07-25 09:59:00,60.1,41.9,30.19,NNW,329,3.1,5.8,51,0.00,,CLR,0.00,VWS V14.01,2013-07-25 13:59:00,
2013-07-25 10:04:00,60.1,39.8,30.19,North,357,3.6,3.6,47,0.00,,CLR,0.00,VWS V14.01,2013-07-25 14:04:00,
2013-07-25 10:09:00,60.3,40.0,30.19,North,357,3.6,3.6,47,0.00,,CLR,0.00,VWS V14.01,2013-07-25 14:09:00,
2013-07-25 10:14:00,60.4,38.4,30.19,North,6,4.0,4.0,44,0.00,,CLR,0.00,VWS V14.01,2013-07-25 14:14:00,
2013-07-25 10:19:00,60.4,38.4,30.19,North,6,4.0,4.0,44,0.00,,CLR,0.00,VWS V14.01,2013-07-25 14:19:00,
2013-07-25 10:24:00,61.0,35.9,30.19,North,357,8.3,8.3,39,0.00,,CLR,0.00,VWS V14.01,2013-07-25 14:24:00,
2013-07-25 10:29:00,61.2,34.7,30.19,North,357,8.3,8.3,37,0.00,,CLR,0.00,VWS V14.01,2013-07-25 14:29:00,
2013-07-25 10:34:00,61.5,34.3,30.19,NNE,18,6.3,8.3,36,0.00,,CLR,0.00,VWS V14.01,2013-07-25 14:34:00,
2013-07-25 10:39:00,62.4,35.1,30.19,NNW,329,4.0,8.3,36,0.00,,CLR,0.00,VWS V14.01,2013-07-25 14:39:00,
2013-07-25 10:44:00,62.4,35.1,30.19,NE,36,5.4,5.4,36,0.00,,CLR,0.00,VWS V14.01,2013-07-25 14:44:00,
2013-07-25 10:49:00,63.0,34.9,30.19,North,8,6.3,6.3,35,0.00,,CLR,0.00,VWS V14.01,2013-07-25 14:49:00,
2013-07-25 10:54:00,63.0,34.9,30.19,NW,306,3.1,6.3,35,0.00,,CLR,0.00,VWS V14.01,2013-07-25 14:54:00,
2013-07-25 10:59:00,63.3,35.2,30.19,NNE,13,2.7,6.3,35,0.00,,CLR,0.00,VWS V14.01,2013-07-25 14:59:00,
2013-07-25 11:04:00,63.3,35.2,30.19,NNW,340,4.0,4.0,35,0.00,,CLR,0.00,VWS V14.01,2013-07-25 15:04:00,
2013-07-25 11:09:00,64.2,36.0,30.19,SW,217,4.0,7.6,35,0.00,,CLR,0.00,VWS V14.01,2013-07-25 15:09:00,
2013-07-25 11:14:00,64.4,36.2,30.19,WSW,239,4.0,4.0,35,0.00,,CLR,0.00,VWS V14.01,2013-07-25 15:14:00,
2013-07-25 11:19:00,64.6,37.0,30.16,North,1,2.7,4.0,36,0.00,,CLR,0.00,VWS V14.01,2013-07-25 15:19:00,
2013-07-25 11:24:00,64.9,36.7,30.16,North,1,2.7,2.7,35,0.00,,CLR,0.00,VWS V14.01,2013-07-25 15:24:00,
2013-07-25 11:29:00,65.1,36.8,30.19,North,9,4.0,4.0,35,0.00,,CLR,0.00,VWS V14.01,2013-07-25 15:29:00,
2013-07-25 11:34:00,65.1,36.1,30.19,NNW,345,5.4,5.4,34,0.00,,CLR,0.00,VWS V14.01,2013-07-25 15:34:00,
2013-07-25 11:39:00,65.1,36.1,30.19,NNW,344,7.2,7.2,34,0.00,,CLR,0.00,VWS V14.01,2013-07-25 15:39:00,
2013-07-25 11:44:00,65.1,36.1,30.19,NNW,339,4.0,7.2,34,0.00,,CLR,0.00,VWS V14.01,2013-07-25 15:44:00,
2013-07-25 11:49:00,65.1,36.1,30.19,NNW,335,3.1,7.2,34,0.00,,CLR,0.00,VWS V14.01,2013-07-25 15:49:00,
2013-07-25 11:54:00,65.3,36.2,30.19,NW,323,0.0,4.9,34,0.00,,CLR,0.00,VWS V14.01,2013-07-25 15:54:00,
2013-07-25 11:59:00,65.3,35.5,30.19,NW,323,0.0,4.9,33,0.00,,CLR,0.00,VWS V14.01,2013-07-25 15:59:00,
2013-07-25 12:05:00,65.3,36.2,30.19,NNW,328,3.1,3.6,34,0.00,,CLR,0.00,VWS V14.01,2013-07-25 16:05:00,
2013-07-25 12:10:00,65.3,36.2,30.19,NNW,337,2.2,2.2,34,0.00,,CLR,0.00,VWS V14.01,2013-07-25 16:10:00,
2013-07-25 12:15:00,65.8,36.0,30.19,NW,319,4.9,4.9,33,0.00,,CLR,0.00,VWS V14.01,2013-07-25 16:15:00,
2013-07-25 12:20:00,65.8,36.0,30.19,WNW,298,0.0,0.0,33,0.00,,CLR,0.00,VWS V14.01,2013-07-25 16:20:00,
2013-07-25 12:25:00,67.1,37.1,30.19,North,7,2.2,2.2,33,0.00,,CLR,0.00,VWS V14.01,2013-07-25 16:25:00,
2013-07-25 12:30:00,67.1,37.1,30.19,North,7,2.2,2.2,33,0.00,,CLR,0.00,VWS V14.01,2013-07-25 16:30:00,
2013-07-25 12:35:00,67.5,38.1,30.19,NW,312,0.0,4.0,34,0.00,,CLR,0.00,VWS V14.01,2013-07-25 16:35:00,
2013-07-25 12:40:00,67.6,37.5,30.19,NNE,25,0.0,0.0,33,0.00,,CLR,0.00,VWS V14.01,2013-07-25 16:40:00,
2013-07-25 12:45:00,67.5,37.4,30.19,South,174,0.0,5.8,33,0.00,,CLR,0.00,VWS V14.01,2013-07-25 16:45:00,
2013-07-25 12:50:00,67.8,37.7,30.19,North,353,2.7,4.0,33,0.00,,CLR,0.00,VWS V14.01,2013-07-25 16:50:00,
2013-07-25 12:55:00,68.0,37.1,30.19,NNE,33,4.9,4.9,32,0.00,,CLR,0.00,VWS V14.01,2013-07-25 16:55:00,
2013-07-25 13:00:00,67.6,36.8,30.19,NNW,345,0.0,0.0,32,0.00,,CLR,0.00,VWS V14.01,2013-07-25 17:00:00,
2013-07-25 13:05:00,67.6,36.8,30.19,NE,38,3.1,3.1,32,0.00,,CLR,0.00,VWS V14.01,2013-07-25 17:05:00,
2013-07-25 13:10:00,67.6,36.0,30.19,NNE,20,4.0,4.0,31,0.00,,CLR,0.00,VWS V14.01,2013-07-25 17:10:00,
2013-07-25 13:15:00,67.6,36.0,30.19,NNE,17,5.4,5.4,31,0.00,,CLR,0.00,VWS V14.01,2013-07-25 17:15:00,
2013-07-25 13:20:00,67.6,36.0,30.16,NE,39,0.0,0.0,31,0.00,,CLR,0.00,VWS V14.01,2013-07-25 17:20:00,
2013-07-25 13:25:00,67.8,36.1,30.16,North,353,2.2,2.2,31,0.00,,CLR,0.00,VWS V14.01,2013-07-25 17:25:00,
2013-07-25 13:30:00,67.8,36.1,30.16,NNW,344,4.0,4.0,31,0.00,,CLR,0.00,VWS V14.01,2013-07-25 17:30:00,
2013-07-25 13:35:00,67.8,36.1,30.16,North,11,2.7,4.0,31,0.00,,CLR,0.00,VWS V14.01,2013-07-25 17:35:00,
2013-07-25 13:40:00,67.8,36.1,30.16,NNW,333,3.6,3.6,31,0.00,,CLR,0.00,VWS V14.01,2013-07-25 17:40:00,
2013-07-25 13:45:00,68.2,37.2,30.16,NNW,333,3.6,3.6,32,0.00,,CLR,0.00,VWS V14.01,2013-07-25 17:45:00,
2013-07-25 13:50:00,68.7,37.7,30.16,NNE,28,0.0,0.0,32,0.00,,CLR,0.00,VWS V14.01,2013-07-25 17:50:00,
2013-07-25 13:55:00,68.7,37.7,30.16,North,2,5.4,5.4,32,0.00,,CLR,0.00,VWS V14.01,2013-07-25 17:55:00,
2013-07-25 14:00:00,68.5,37.5,30.16,NNW,329,3.6,5.4,32,0.00,,CLR,0.00,VWS V14.01,2013-07-25 18:00:00,
2013-07-25 14:05:00,68.7,37.7,30.16,NNW,342,0.0,5.4,32,0.00,,CLR,0.00,VWS V14.01,2013-07-25 18:05:00,
2013-07-25 14:10:00,68.7,37.7,30.16,North,0,3.6,3.6,32,0.00,,CLR,0.00,VWS V14.01,2013-07-25 18:10:00,
2013-07-25 14:15:00,68.7,37.7,30.16,North,357,4.9,4.9,32,0.00,,CLR,0.00,VWS V14.01,2013-07-25 18:15:00,
2013-07-25 14:20:00,69.1,38.0,30.16,ENE,67,0.0,0.0,32,0.00,,CLR,0.00,VWS V14.01,2013-07-25 18:20:00,
2013-07-25 14:25:00,69.1,38.0,30.16,SW,216,0.0,0.0,32,0.00,,CLR,0.00,VWS V14.01,2013-07-25 18:25:00,
2013-07-25 14:31:00,69.1,38.0,30.16,SSW,202,4.0,4.0,32,0.00,,CLR,0.00,VWS V14.01,2013-07-25 18:31:00,
2013-07-25 14:36:00,69.1,38.0,30.16,SSW,202,4.0,4.0,32,0.00,,CLR,0.00,VWS V14.01,2013-07-25 18:36:00,
2013-07-25 14:41:00,69.1,38.0,30.16,North,357,0.0,0.0,32,0.00,,CLR,0.00,VWS V14.01,2013-07-25 18:41:00,
2013-07-25 14:46:00,69.1,38.0,30.16,North,1,2.2,5.4,32,0.00,,CLR,0.00,VWS V14.01,2013-07-25 18:46:00,
2013-07-25 14:51:00,69.1,38.0,30.16,NW,320,0.0,0.0,32,0.00,,CLR,0.00,VWS V14.01,2013-07-25 18:51:00,
2013-07-25 14:56:00,69.1,38.0,30.16,NW,320,0.0,0.0,32,0.00,,CLR,0.00,VWS V14.01,2013-07-25 18:56:00,
2013-07-25 15:01:00,70.0,38.0,30.16,NNE,16,3.6,3.6,31,0.00,,CLR,0.00,VWS V14.01,2013-07-25 19:01:00,
2013-07-25 15:06:00,70.0,38.0,30.16,NNW,335,2.7,3.6,31,0.00,,CLR,0.00,VWS V14.01,2013-07-25 19:06:00,
2013-07-25 15:11:00,70.0,38.0,30.16,NNW,339,5.4,5.4,31,0.00,,CLR,0.00,VWS V14.01,2013-07-25 19:11:00,
2013-07-25 15:16:00,70.3,39.1,30.16,NNW,345,4.0,5.4,32,0.00,,CLR,0.00,VWS V14.01,2013-07-25 19:16:00,
2013-07-25 15:21:00,70.3,39.1,30.16,North,353,3.6,3.6,32,0.00,,CLR,0.00,VWS V14.01,2013-07-25 19:21:00,
2013-07-25 15:26:00,70.3,39.1,30.16,North,2,0.0,3.6,32,0.00,,CLR,0.00,VWS V14.01,2013-07-25 19:26:00,
2013-07-25 15:31:00,70.3,37.5,30.16,NNW,336,4.0,4.0,30,0.00,,CLR,0.00,VWS V14.01,2013-07-25 19:31:00,
2013-07-25 15:36:00,70.3,39.1,30.16,NNW,336,4.0,4.0,32,0.00,,CLR,0.00,VWS V14.01,2013-07-25 19:36:00,
2013-07-25 15:41:00,70.3,39.1,30.16,NNE,33,2.7,2.7,32,0.00,,CLR,0.00,VWS V14.01,2013-07-25 19:41:00,
2013-07-25 15:46:00,70.3,39.1,30.16,NW,307,0.0,2.7,32,0.00,,CLR,0.00,VWS V14.01,2013-07-25 19:46:00,
2013-07-25 15:52:00,70.3,39.1,30.16,NNW,328,3.6,3.6,32,0.00,,CLR,0.00,VWS V14.01,2013-07-25 19:52:00,
2013-07-25 15:57:00,70.2,39.0,30.16,NNW,338,3.1,4.9,32,0.00,,CLR,0.00,VWS V14.01,2013-07-25 19:57:00,
2013-07-25 16:02:00,70.0,38.0,30.16,NNW,329,5.4,5.4,31,0.00,,CLR,0.00,VWS V14.01,2013-07-25 20:02:00,
2013-07-25 16:07:00,70.0,38.8,30.16,NNW,334,4.9,5.4,32,0.00,,CLR,0.00,VWS V14.01,2013-07-25 20:07:00,
2013-07-25 16:12:00,70.0,38.8,30.16,North,350,0.0,4.9,32,0.00,,CLR,0.00,VWS V14.01,2013-07-25 20:12:00,
2013-07-25 16:17:00,69.4,37.5,30.16,NW,311,4.0,4.9,31,0.00,,CLR,0.00,VWS V14.01,2013-07-25 20:17:00,
2013-07-25 16:22:00,69.3,37.4,30.16,NNW,330,0.0,4.0,31,0.00,,CLR,0.00,VWS V14.01,2013-07-25 20:22:00,
2013-07-25 16:27:00,69.3,37.4,30.16,NNW,333,0.0,4.0,31,0.00,,CLR,0.00,VWS V14.01,2013-07-25 20:27:00,
2013-07-25 16:32:00,69.3,38.2,30.16,NNW,339,3.1,3.1,32,0.00,,CLR,0.00,VWS V14.01,2013-07-25 20:32:00,
2013-07-25 16:37:00,69.3,38.2,30.16,NNW,336,5.8,5.8,32,0.00,,CLR,0.00,VWS V14.01,2013-07-25 20:37:00,
2013-07-25 16:42:00,69.3,39.0,30.16,NNW,330,0.0,3.1,33,0.00,,CLR,0.00,VWS V14.01,2013-07-25 20:42:00,
2013-07-25 16:47:00,69.3,39.0,30.16,NNW,344,3.1,4.0,33,0.00,,CLR,0.00,VWS V14.01,2013-07-25 20:47:00,
2013-07-25 16:52:00,69.3,38.2,30.16,NNW,344,3.1,3.1,32,0.00,,CLR,0.00,VWS V14.01,2013-07-25 20:52:00,
2013-07-25 16:57:00,69.3,38.2,30.16,North,4,0.0,3.1,32,0.00,,CLR,0.00,VWS V14.01,2013-07-25 20:57:00,
2013-07-25 17:02:00,69.3,38.2,30.16,NE,34,5.4,5.4,32,0.00,,CLR,0.00,VWS V14.01,2013-07-25 21:02:00,
2013-07-25 17:07:00,69.4,38.3,30.16,North,350,3.6,5.4,32,0.00,,CLR,0.00,VWS V14.01,2013-07-25 21:07:00,
2013-07-25 17:12:00,69.3,38.2,30.16,NNW,332,2.7,2.7,32,0.00,,CLR,0.00,VWS V14.01,2013-07-25 21:12:00,
2013-07-25 17:17:00,69.3,38.2,30.16,NW,322,4.0,4.0,32,0.00,,CLR,0.00,VWS V14.01,2013-07-25 21:17:00,
2013-07-25 17:23:00,69.3,39.0,30.16,NNW,332,0.0,4.0,33,0.00,,CLR,0.00,VWS V14.01,2013-07-25 21:23:00,
2013-07-25 17:28:00,69.3,39.0,30.16,NNW,338,3.1,4.0,33,0.00,,CLR,0.00,VWS V14.01,2013-07-25 21:28:00,
2013-07-25 17:32:00,69.1,38.0,30.16,NW,318,2.7,3.1,32,0.00,,CLR,0.00,VWS V14.01,2013-07-25 21:32:00,
2013-07-25 17:37:00,69.1,38.0,30.16,NNW,336,0.0,3.1,32,0.00,,CLR,0.00,VWS V14.01,2013-07-25 21:37:00,
2013-07-25 17:42:00,69.1,38.0,30.16,WSW,255,4.0,4.0,32,0.00,,CLR,0.00,VWS V14.01,2013-07-25 21:42:00,
2013-07-25 17:47:00,69.1,38.0,30.16,NW,321,5.4,5.4,32,0.00,,CLR,0.00,VWS V14.01,2013-07-25 21:47:00,
2013-07-25 17:52:00,69.1,38.0,30.16,NNW,328,3.6,5.8,32,0.00,,CLR,0.00,VWS V14.01,2013-07-25 21:52:00,
2013-07-25 17:57:00,69.1,38.0,30.16,NNW,334,2.7,5.8,32,0.00,,CLR,0.00,VWS V14.01,2013-07-25 21:57:00,
2013-07-25 18:02:00,69.1,38.0,30.16,NNW,335,0.0,0.0,32,0.00,,CLR,0.00,VWS V14.01,2013-07-25 22:02:00,
2013-07-25 18:07:00,69.3,39.0,30.16,North,353,0.0,3.6,33,0.00,,CLR,0.00,VWS V14.01,2013-07-25 22:07:00,
2013-07-25 18:12:00,69.4,39.1,30.16,NNW,332,3.6,3.6,33,0.00,,CLR,0.00,VWS V14.01,2013-07-25 22:12:00,
2013-07-25 18:17:00,69.3,39.0,30.16,NNW,344,2.7,3.6,33,0.00,,CLR,0.00,VWS V14.01,2013-07-25 22:17:00,
2013-07-25 18:22:00,69.3,39.0,30.16,North,8,4.0,4.0,33,0.00,,CLR,0.00,VWS V14.01,2013-07-25 22:22:00,
2013-07-25 18:28:00,69.1,38.0,30.16,North,350,4.0,4.0,32,0.00,,CLR,0.00,VWS V14.01,2013-07-25 22:28:00,
2013-07-25 18:33:00,68.7,38.5,30.16,NNW,341,3.6,3.6,33,0.00,,CLR,0.00,VWS V14.01,2013-07-25 22:33:00,
2013-07-25 18:38:00,68.4,38.2,30.16,North,353,0.0,3.6,33,0.00,,CLR,0.00,VWS V14.01,2013-07-25 22:38:00,
2013-07-25 18:43:00,68.2,38.0,30.16,North,2,2.2,5.8,33,0.00,,CLR,0.00,VWS V14.01,2013-07-25 22:43:00,
2013-07-25 18:48:00,68.2,38.0,30.16,North,353,3.1,5.8,33,0.00,,CLR,0.00,VWS V14.01,2013-07-25 22:48:00,
2013-07-25 18:53:00,67.6,39.0,30.16,North,353,3.1,3.1,35,0.00,,CLR,0.00,VWS V14.01,2013-07-25 22:53:00,
2013-07-25 18:58:00,67.3,38.7,30.16,NNW,335,0.0,3.6,35,0.00,,CLR,0.00,VWS V14.01,2013-07-25 22:58:00,
2013-07-25 19:03:00,67.1,39.3,30.16,NNW,338,0.0,0.0,36,0.00,,CLR,0.00,VWS V14.01,2013-07-25 23:03:00,
2013-07-25 19:08:00,66.7,38.2,30.16,NNW,339,2.2,2.2,35,0.00,,CLR,0.00,VWS V14.01,2013-07-25 23:08:00,
2013-07-25 19:13:00,66.7,38.2,30.16,North,353,0.0,3.6,35,0.00,,CLR,0.00,VWS V14.01,2013-07-25 23:13:00,
2013-07-25 19:18:00,65.8,38.2,30.16,North,353,0.0,3.6,36,0.00,,CLR,0.00,VWS V14.01,2013-07-25 23:18:00,
2013-07-25 19:23:00,65.8,38.2,30.16,NNW,341,0.0,0.0,36,0.00,,CLR,0.00,VWS V14.01,2013-07-25 23:23:00,
2013-07-25 19:28:00,64.8,37.9,30.16,NNW,341,0.0,0.0,37,0.00,,CLR,0.00,VWS V14.01,2013-07-25 23:28:00,
2013-07-25 19:33:00,63.9,38.5,30.16,NNW,338,0.0,0.0,39,0.00,,CLR,0.00,VWS V14.01,2013-07-25 23:33:00,
2013-07-25 19:38:00,63.9,38.5,30.16,NNW,341,3.1,3.1,39,0.00,,CLR,0.00,VWS V14.01,2013-07-25 23:38:00,
2013-07-25 19:43:00,63.9,38.5,30.16,North,357,0.0,0.0,39,0.00,,CLR,0.00,VWS V14.01,2013-07-25 23:43:00,
2013-07-25 19:48:00,62.6,39.2,30.16,North,357,0.0,0.0,42,0.00,,CLR,0.00,VWS V14.01,2013-07-25 23:48:00,
2013-07-25 19:53:00,62.2,38.9,30.16,North,357,0.0,0.0,42,0.00,,CLR,0.00,VWS V14.01,2013-07-25 23:53:00,
2013-07-25 19:58:00,61.0,40.6,30.16,North,357,0.0,0.0,47,0.00,,CLR,0.00,VWS V14.01,2013-07-25 23:58:00,
2013-07-25 20:03:00,60.4,41.7,30.16,North,357,0.0,0.0,50,0.00,,CLR,0.00,VWS V14.01,2013-07-26 00:03:00,
2013-07-25 20:08:00,60.1,41.9,30.16,North,357,0.0,0.0,51,0.00,,CLR,0.00,VWS V14.01,2013-07-26 00:08:00,
2013-07-25 20:13:00,59.7,42.1,30.16,North,357,0.0,0.0,52,0.00,,CLR,0.00,VWS V14.01,2013-07-26 00:13:00,
2013-07-25 20:18:00,59.2,42.1,30.16,North,357,0.0,0.0,53,0.00,,CLR,0.00,VWS V14.01,2013-07-26 00:18:00,
2013-07-25 20:23:00,59.2,42.1,30.16,North,357,0.0,0.0,53,0.00,,CLR,0.00,VWS V14.01,2013-07-26 00:23:00,
2013-07-25 20:28:00,58.5,41.9,30.16,North,357,0.0,0.0,54,0.00,,CLR,0.00,VWS V14.01,2013-07-26 00:28:00,
2013-07-25 20:33:00,57.7,41.7,30.16,North,357,0.0,0.0,55,0.00,,CLR,0.00,VWS V14.01,2013-07-26 00:33:00,
2013-07-25 20:38:00,57.6,41.5,30.16,North,357,0.0,0.0,55,0.00,,CLR,0.00,VWS V14.01,2013-07-26 00:38:00,
2013-07-25 20:43:00,57.4,41.8,30.16,North,357,0.0,0.0,56,0.00,,CLR,0.00,VWS V14.01,2013-07-26 00:43:00,
2013-07-25 20:48:00,57.4,41.8,30.16,North,357,0.0,0.0,56,0.00,,CLR,0.00,VWS V14.01,2013-07-26 00:48:00,
2013-07-25 20:53:00,56.8,41.3,30.16,North,357,0.0,0.0,56,0.00,,CLR,0.00,VWS V14.01,2013-07-26 00:53:00,
2013-07-25 20:58:00,56.5,41.9,30.19,North,357,0.0,0.0,58,0.00,,CLR,0.00,VWS V14.01,2013-07-26 00:58:00,
2013-07-25 21:03:00,56.3,42.2,30.19,North,357,0.0,0.0,59,0.00,,CLR,0.00,VWS V14.01,2013-07-26 01:03:00,
2013-07-25 21:08:00,55.8,41.7,30.19,North,357,0.0,0.0,59,0.00,,CLR,0.00,VWS V14.01,2013-07-26 01:08:00,
2013-07-25 21:13:00,55.8,41.7,30.19,North,357,0.0,0.0,59,0.00,,CLR,0.00,VWS V14.01,2013-07-26 01:13:00,
2013-07-25 21:18:00,55.0,42.7,30.19,North,357,0.0,0.0,63,0.00,,CLR,0.00,VWS V14.01,2013-07-26 01:18:00,
2013-07-25 21:23:00,54.7,42.8,30.19,North,357,0.0,0.0,64,0.00,,CLR,0.00,VWS V14.01,2013-07-26 01:23:00,
2013-07-25 21:28:00,54.7,42.8,30.19,North,357,0.0,0.0,64,0.00,,CLR,0.00,VWS V14.01,2013-07-26 01:28:00,
2013-07-25 21:33:00,54.0,43.3,30.19,North,357,0.0,0.0,67,0.00,,CLR,0.00,VWS V14.01,2013-07-26 01:33:00,
2013-07-25 21:38:00,54.0,43.3,30.19,North,357,0.0,0.0,67,0.00,,CLR,0.00,VWS V14.01,2013-07-26 01:38:00,
2013-07-25 21:43:00,53.4,43.5,30.19,North,357,0.0,0.0,69,0.00,,CLR,0.00,VWS V14.01,2013-07-26 01:43:00,
2013-07-25 21:48:00,53.4,43.5,30.19,North,357,0.0,0.0,69,0.00,,CLR,0.00,VWS V14.01,2013-07-26 01:48:00,
2013-07-25 21:53:00,53.1,43.5,30.19,North,357,0.0,0.0,70,0.00,,CLR,0.00,VWS V14.01,2013-07-26 01:53:00,
2013-07-25 21:58:00,53.1,43.5,30.19,North,357,0.0,0.0,70,0.00,,CLR,0.00,VWS V14.01,2013-07-26 01:58:00,
2013-07-25 22:03:00,52.5,43.4,30.19,North,357,0.0,0.0,71,0.00,,CLR,0.00,VWS V14.01,2013-07-26 02:03:00,
2013-07-25 22:08:00,52.3,43.2,30.19,North,357,0.0,0.0,71,0.00,,CLR,0.00,VWS V14.01,2013-07-26 02:08:00,
2013-07-25 22:13:00,52.3,43.2,30.19,North,357,0.0,0.0,71,0.00,,CLR,0.00,VWS V14.01,2013-07-26 02:13:00,
2013-07-25 22:18:00,51.8,42.7,30.19,North,357,0.0,0.0,71,0.00,,CLR,0.00,VWS V14.01,2013-07-26 02:18:00,
2013-07-25 22:23:00,51.6,42.9,30.19,North,357,0.0,0.0,72,0.00,,CLR,0.00,VWS V14.01,2013-07-26 02:23:00,
2013-07-25 22:28:00,51.6,42.9,30.19,North,357,0.0,0.0,72,0.00,,CLR,0.00,VWS V14.01,2013-07-26 02:28:00,
2013-07-25 22:33:00,51.4,42.7,30.19,North,357,0.0,0.0,72,0.00,,CLR,0.00,VWS V14.01,2013-07-26 02:33:00,
2013-07-25 22:38:00,51.4,42.7,30.19,North,357,0.0,0.0,72,0.00,,CLR,0.00,VWS V14.01,2013-07-26 02:38:00,
2013-07-25 22:43:00,51.4,42.7,30.19,North,357,0.0,0.0,72,0.00,,CLR,0.00,VWS V14.01,2013-07-26 02:43:00,
2013-07-25 22:48:00,51.4,42.7,30.19,North,357,0.0,0.0,72,0.00,,CLR,0.00,VWS V14.01,2013-07-26 02:48:00,
2013-07-25 22:53:00,51.4,42.7,30.19,North,357,0.0,0.0,72,0.00,,CLR,0.00,VWS V14.01,2013-07-26 02:53:00,
2013-07-25 22:58:00,51.4,42.7,30.19,North,357,0.0,0.0,72,0.00,,CLR,0.00,VWS V14.01,2013-07-26 02:58:00,
2013-07-25 23:03:00,50.5,42.6,30.19,North,357,0.0,0.0,74,0.00,,CLR,0.00,VWS V14.01,2013-07-26 03:03:00,
2013-07-25 23:09:00,50.4,42.8,30.19,North,357,0.0,0.0,75,0.00,,CLR,0.00,VWS V14.01,2013-07-26 03:09:00,
2013-07-25 23:13:00,50.4,42.8,30.19,North,357,0.0,0.0,75,0.00,,CLR,0.00,VWS V14.01,2013-07-26 03:13:00,
2013-07-25 23:18:00,50.2,42.6,30.19,North,357,0.0,0.0,75,0.00,,CLR,0.00,VWS V14.01,2013-07-26 03:18:00,
2013-07-25 23:24:00,50.2,42.6,30.19,North,357,0.0,0.0,75,0.00,,CLR,0.00,VWS V14.01,2013-07-26 03:24:00,
2013-07-25 23:29:00,50.0,42.7,30.19,North,357,0.0,0.0,76,0.00,,CLR,0.00,VWS V14.01,2013-07-26 03:29:00,
2013-07-25 23:34:00,50.0,42.7,30.19,North,357,0.0,0.0,76,0.00,,CLR,0.00,VWS V14.01,2013-07-26 03:34:00,
2013-07-25 23:39:00,49.8,42.9,30.19,North,357,0.0,0.0,77,0.00,,CLR,0.00,VWS V14.01,2013-07-26 03:39:00,
2013-07-25 23:44:00,49.6,42.7,30.19,North,357,0.0,0.0,77,0.00,,CLR,0.00,VWS V14.01,2013-07-26 03:44:00,
2013-07-25 23:49:00,49.5,42.6,30.19,North,357,0.0,0.0,77,0.00,,CLR,0.00,VWS V14.01,2013-07-26 03:49:00,
2013-07-25 23:54:00,49.5,42.9,30.19,North,357,0.0,0.0,78,0.00,,CLR,0.00,VWS V14.01,2013-07-26 03:54:00,
2013-07-25 23:59:00,49.3,42.7,30.19,North,357,0.0,0.0,78,0.00,,CLR,0.00,VWS V14.01,2013-07-26 03:59:00,